OMAAOMAL

Guest
Details From OMAA - ABU DHABI INTL
To OMAL - AL AIN INTL
Flight Number -
Tags generated
Created
Modified
Stats Distance 53 nm / 99 km
Max Altitude 5,500 ft / 1,676 m
Waypoints 4
Social Downloads 0
Likes 0
Share VATSIM

Download

Looking for another format? Having issues loading an existing format? Contact us
Advertisement - Login to hide

Notes

Basic altitude profile: - Ascent Rate: 2500ft/min - Ascent Speed: 250kts - Cruise Altitude: 35000ft - Cruise Speed: 420kts - Descent Rate: 1500ft/min - Descent Speed: 250kts Options: - Use NATs: yes - Use PACOTS: yes - Use low airways: yes - Use high airways: no

Route

OMAA ROVOS P899 ALN OMAL

ID Type Via Altitude Latitude Longitude Leg Dist Tot Dist Heading (true) Name
O OMAA APT - 0 ft / 0 m 24.43305˚ 54.65118˚ - 0 nm - ABU DHABI INTL
ROVOS FIX - 2,900 ft / 884 m 24.30694˚ 55.36194˚ 39 nm 39 nm 101° / 101° -
ALN VOR P899 (AWY-LO) 5,500 ft / 1,676 m 24.25975˚ 55.60636˚ 13 nm 53 nm 102° / 102° AL AIN VOR-DME
O OMAL APT - 0 ft / 0 m 24.26169˚ 55.60913˚ 0 nm 53 nm 52° / 52° AL AIN INTL

Altitude Profile

Advertisement - Login to hide

OMAA

Details ICAO OMAA (AUH)
Name ABU DHABI INTL
Region United Arab Emirates
Timezone Asia/Dubai (UTC+4.0)
Stats Elevation 88 ft / 27 m (AMSL)
Location 24.433049° 54.651182°
Runways 1
Magnetic Variation 1.979° E

METAR

OMAA 121200Z 29014KT 9999 BKN030 24/14 Q1015 NOSIG

Decode

TAF

TAF OMAA 121100Z 1212/1318 30012KT 8000 SCT030 BECMG 1222/1300 01005KT TEMPO 1222/1302 BKN030 BECMG 1301/1303 13005KT NSC BECMG 1311/1313 34007KT

Decode

Departure Runways

ID Width Length Bearing (true) Bearing (mag) Surface Threshold Offset Overrun Length
13 148 ft / 45 m 13,461 ft / 4,103 m 127.94° 125.96° Asphalt 0 ft / 0 m 180 ft / 55 m
31 148 ft / 45 m 13,461 ft / 4,103 m 307.95° 305.97° Asphalt 0 ft / 0 m 196 ft / 60 m

OMAL

Details ICAO OMAL (AAN)
Name AL AIN INTL
Region United Arab Emirates
Timezone Asia/Dubai (UTC+4.0)
Stats Elevation 869 ft / 265 m (AMSL)
Location 24.261690° 55.609131°
Runways 1
Magnetic Variation 1.845° E

METAR

OMAL 121200Z 28012KT 250V320 8000 SCT043 24/13 Q1016 NOSIG

Decode

TAF

Not found

Destination Runways

ID Width Length Bearing (true) Bearing (mag) Surface Threshold Offset Overrun Length
01 148 ft / 45 m 13,176 ft / 4,016 m 7.40° 5.56° Asphalt 0 ft / 0 m 1,312 ft / 400 m
19 148 ft / 45 m 13,176 ft / 4,016 m 187.40° 185.56° Asphalt 0 ft / 0 m 1,080 ft / 329 m

Popular Alternatives